Canefield Airport

Fair with adjacent showers
25oC (77oF)

Fair with adjacent showers


Winds: South easterly @ 02kts / 04km/h

Humidity: 90%

Barometric Pressure: 1012 mb

Accumulated Rainfall for November: 106.9 mm

Updated: 18:00 local time (22:00 UTC)

Douglas-Charles Airport

Partly cloudy with adjacent showers
25oC (77oF)

Partly cloudy with adjacent showers


Winds: South south easterly @ 03kts / 06km/h

Humidity: 90%

Barometric Pressure: 1013 mb

Accumulated Rainfall for November: 681.7 mm

Updated: 18:00 local time (22:00 UTC)

Satellite Imagery

Satellite Imagery
Click image for larger view. (Source: National Hurricane Center).

Aviation Routine Report (METAR)

Douglas-Charles: METAR TDPD 242200Z 15003KT 9999 SCT018 25/23 Q1013=
Canefield: METAR TDCF 242200Z 14002KT 9999 FEW017 25/23 Q1012=